TimeEDT,TemperatureF,Dew PointF,Humidity,Sea Level PressureIn,VisibilityMPH,Wind Direction,Wind SpeedMPH,Gust SpeedMPH,PrecipitationIn,Events,Conditions,WindDirDegrees,DateUTC
12:52 AM,46.0,43.0,89,30.19,10.0,Calm,Calm,-,N/A,,Clear,0,2012-09-20 04:52:00
1:52 AM,45.0,43.0,93,30.19,10.0,Calm,Calm,-,N/A,,Clear,0,2012-09-20 05:52:00
3:52 AM,44.1,42.1,93,30.20,10.0,Calm,Calm,-,N/A,,Clear,0,2012-09-20 07:52:00
4:52 AM,44.1,42.1,93,30.22,10.0,Calm,Calm,-,N/A,,Clear,0,2012-09-20 08:52:00
5:52 AM,44.1,41.0,89,30.22,10.0,Calm,Calm,-,N/A,,Clear,0,2012-09-20 09:52:00
6:52 AM,44.1,42.1,93,30.23,10.0,Calm,Calm,-,N/A,,Clear,0,2012-09-20 10:52:00
7:52 AM,55.0,48.9,80,30.24,10.0,Variable,3.5,-,N/A,,Clear,0,2012-09-20 11:52:00
8:40 AM,59.0,48.9,69,30.24,10.0,NE,4.6,-,N/A,,Partly Cloudy,40,2012-09-20 12:40:00
9:52 AM,63.0,46.9,56,30.24,10.0,ENE,9.2,-,N/A,,Clear,60,2012-09-20 13:52:00
10:52 AM,64.9,46.9,52,30.23,10.0,NE,9.2,-,N/A,,Partly Cloudy,40,2012-09-20 14:52:00
11:52 AM,66.0,46.0,48,30.22,10.0,NE,6.9,-,N/A,,Clear,50,2012-09-20 15:52:00
12:52 PM,66.0,45.0,47,30.20,10.0,NNE,6.9,-,N/A,,Clear,20,2012-09-20 16:52:00
1:52 PM,66.9,46.9,49,30.19,10.0,Variable,3.5,-,N/A,,Scattered Clouds,0,2012-09-20 17:52:00
2:52 PM,66.9,48.0,51,30.17,10.0,Variable,6.9,-,N/A,,Partly Cloudy,0,2012-09-20 18:52:00
3:52 PM,64.9,46.9,52,30.17,10.0,NE,5.8,-,N/A,,Clear,50,2012-09-20 19:52:00
4:52 PM,64.0,46.0,52,30.17,10.0,East,6.9,-,N/A,,Clear,80,2012-09-20 20:52:00
5:52 PM,59.0,46.9,64,30.16,10.0,ENE,4.6,-,N/A,,Clear,60,2012-09-20 21:52:00
6:52 PM,55.9,48.0,75,30.18,10.0,ENE,3.5,-,N/A,,Clear,60,2012-09-20 22:52:00
7:52 PM,54.0,48.0,80,30.18,10.0,East,3.5,-,N/A,,Clear,80,2012-09-20 23:52:00
8:52 PM,48.9,46.0,90,30.17,10.0,Calm,Calm,-,N/A,,Clear,0,2012-09-21 00:52:00
9:52 PM,46.0,44.1,93,30.17,7.0,Calm,Calm,-,N/A,,Clear,0,2012-09-21 01:52:00
9:57 PM,46.0,44.1,93,30.17,1.5,Calm,Calm,-,N/A,,Clear,0,2012-09-21 01:57:00
10:04 PM,46.0,44.1,93,30.17,1.2,Calm,Calm,-,N/A,,Clear,0,2012-09-21 02:04:00
10:07 PM,46.0,44.1,93,30.17,2.5,Calm,Calm,-,N/A,,Clear,0,2012-09-21 02:07:00
10:14 PM,46.0,43.0,89,30.17,6.0,Calm,Calm,-,N/A,,Clear,0,2012-09-21 02:14:00
10:31 PM,45.0,43.0,93,30.17,1.8,Calm,Calm,-,N/A,,Clear,0,2012-09-21 02:31:00
10:41 PM,45.0,43.0,93,30.17,1.2,Calm,Calm,-,N/A,,Clear,0,2012-09-21 02:41:00
10:44 PM,45.0,43.0,93,30.17,0.8,Calm,Calm,-,N/A,,Mist,0,2012-09-21 02:44:00
10:52 PM,44.1,43.0,96,30.17,0.5,Calm,Calm,-,N/A,Fog,Fog,0,2012-09-21 02:52:00
11:08 PM,45.0,42.1,90,30.16,1.2,Calm,Calm,-,N/A,,Partly Cloudy,0,2012-09-21 03:08:00
11:10 PM,45.0,42.1,90,30.16,2.5,Calm,Calm,-,N/A,,Partly Cloudy,0,2012-09-21 03:10:00
11:17 PM,44.1,42.1,93,30.16,7.0,Calm,Calm,-,N/A,,Clear,0,2012-09-21 03:17:00
11:30 PM,44.1,42.1,93,30.16,1.8,Calm,Calm,-,N/A,,Clear,0,2012-09-21 03:30:00
11:34 PM,44.1,42.1,93,30.16,0.8,Calm,Calm,-,N/A,,Clear,0,2012-09-21 03:34:00
11:46 PM,44.6,42.8,93,30.15,1.5,Calm,Calm,-,N/A,,Clear,0,2012-09-21 03:46:00
11:49 PM,44.6,42.8,93,30.15,4.0,Calm,Calm,-,N/A,,Clear,0,2012-09-21 03:49:00
11:52 PM,45.0,43.0,93,30.16,9.0,Calm,Calm,-,N/A,,Clear,0,2012-09-21 03:52:00